createdAt,value
2019-05-13T00:00:53.855Z,98957.98
2019-05-13T00:03:23.966Z,98959.28
2019-05-13T00:05:53.605Z,98961.02
2019-05-13T00:08:24.799Z,98961.00
2019-05-13T00:10:54.170Z,98962.30
2019-05-13T00:13:23.707Z,98961.00
2019-05-13T00:15:54.199Z,98962.70
2019-05-13T00:18:23.573Z,98961.02
2019-05-13T00:20:54.039Z,98964.45
2019-05-13T00:23:23.362Z,98962.73
2019-05-13T00:25:51.773Z,98961.45
2019-05-13T00:28:20.187Z,98964.48
2019-05-13T00:30:48.573Z,98968.81
2019-05-13T00:33:16.992Z,98971.41
2019-05-13T00:35:45.379Z,98968.83
2019-05-13T00:38:14.304Z,98969.28
2019-05-13T00:40:44.280Z,98964.12
2019-05-13T00:43:14.321Z,98963.69
2019-05-13T00:45:44.335Z,98971.87
2019-05-13T00:48:14.298Z,98964.14
2019-05-13T00:50:44.342Z,98967.58
2019-05-13T00:53:13.437Z,98962.87
2019-05-13T00:55:44.208Z,98966.74
2019-05-13T00:58:13.987Z,98967.15
2019-05-13T01:00:44.350Z,98969.73
2019-05-13T01:03:14.162Z,98964.56
2019-05-13T01:05:44.522Z,98966.31
2019-05-13T01:08:14.569Z,98956.44
2019-05-13T01:10:45.214Z,98957.73
2019-05-13T01:13:13.760Z,98953.87
2019-05-13T01:15:44.363Z,98956.02
2019-05-13T01:18:14.296Z,98949.13
2019-05-13T01:20:43.714Z,98952.16
2019-05-13T01:23:14.236Z,98949.17
2019-05-13T01:25:44.477Z,98949.59
2019-05-13T01:28:13.470Z,98950.48
2019-05-13T01:30:43.825Z,98948.31
2019-05-13T01:33:14.510Z,98947.03
2019-05-13T01:35:44.499Z,98943.17
2019-05-13T01:38:13.501Z,98948.78
2019-05-13T01:40:44.053Z,98944.92
2019-05-13T01:43:14.479Z,98947.52
2019-05-13T01:45:44.154Z,98945.37
2019-05-13T01:48:14.103Z,98940.66
2019-05-13T01:50:48.727Z,98946.66
2019-05-13T01:53:17.241Z,98948.80
2019-05-13T01:55:45.648Z,98948.80
2019-05-13T01:58:14.764Z,98951.83
2019-05-13T02:00:44.321Z,98953.56
2019-05-13T02:03:14.546Z,98953.57
2019-05-13T02:05:44.410Z,98956.16
2019-05-13T02:08:14.394Z,98964.34
2019-05-13T02:10:50.361Z,98960.49
2019-05-13T02:13:18.744Z,98967.80
2019-05-13T02:15:47.134Z,98960.52
2019-05-13T02:18:15.536Z,98960.93
2019-05-13T02:20:44.439Z,98968.67
2019-05-13T02:23:14.535Z,98968.27
2019-05-13T02:25:43.593Z,98966.13
2019-05-13T02:28:13.899Z,98965.26
2019-05-13T02:30:45.707Z,98964.85
2019-05-13T02:33:14.242Z,98971.72
2019-05-13T02:35:43.425Z,98973.00
2019-05-13T02:38:23.958Z,98982.91
2019-05-13T02:40:44.952Z,98982.47
2019-05-13T02:43:13.799Z,98984.64
2019-05-13T02:45:43.127Z,98984.64
2019-05-13T02:48:12.620Z,98987.22
2019-05-13T02:50:44.077Z,98993.22
2019-05-13T02:53:13.704Z,98990.20
2019-05-13T02:55:43.641Z,98984.65
2019-05-13T02:58:12.455Z,98992.38
2019-05-13T03:00:44.127Z,98995.37
2019-05-13T03:03:12.881Z,98988.08
2019-05-13T03:05:42.857Z,98993.67
2019-05-13T03:08:12.778Z,98998.83
2019-05-13T03:10:43.374Z,99001.81
2019-05-13T03:13:13.567Z,98999.23
2019-05-13T03:15:52.168Z,99002.70
2019-05-13T03:18:22.274Z,99002.70
2019-05-13T03:20:52.637Z,99003.98
2019-05-13T03:23:22.489Z,99004.42
2019-05-13T03:25:53.296Z,99003.55
2019-05-13T03:28:22.372Z,99007.00
2019-05-13T03:30:56.213Z,99011.27
2019-05-13T03:33:27.919Z,99014.73
2019-05-13T03:35:55.926Z,99013.00
2019-05-13T03:38:23.754Z,99013.00
2019-05-13T03:40:54.397Z,99011.70
2019-05-13T03:43:24.559Z,99023.30
2019-05-13T03:45:54.375Z,99021.60
2019-05-13T03:48:23.729Z,99023.30
2019-05-13T03:50:53.513Z,99024.58
2019-05-13T03:53:23.418Z,99031.47
2019-05-13T03:55:54.107Z,99029.33
2019-05-13T03:58:23.830Z,99026.75
2019-05-13T04:00:52.624Z,99036.17
2019-05-13T04:03:22.715Z,99034.89
2019-05-13T04:05:52.661Z,99039.63
2019-05-13T04:08:22.740Z,99042.61
2019-05-13T04:10:52.626Z,99044.34
2019-05-13T04:13:27.596Z,99049.05
2019-05-13T04:15:56.954Z,99048.64
2019-05-13T04:18:25.339Z,99053.80
2019-05-13T04:20:54.780Z,99061.93
2019-05-13T04:23:24.177Z,99061.53
2019-05-13T04:25:53.616Z,99060.64
2019-05-13T04:28:22.441Z,99065.80
2019-05-13T04:30:52.556Z,99072.24
2019-05-13T04:33:23.044Z,99073.97
2019-05-13T04:35:53.008Z,99077.83
2019-05-13T04:38:22.686Z,99079.13
2019-05-13T04:40:52.898Z,99085.13
2019-05-13T04:43:23.567Z,99085.98
2019-05-13T04:45:52.601Z,99090.28
2019-05-13T04:48:22.887Z,99088.56
2019-05-13T04:50:53.342Z,99085.13
2019-05-13T04:53:22.859Z,99087.70
2019-05-13T04:55:52.900Z,99092.00
2019-05-13T04:58:24.309Z,99096.30
2019-05-13T05:01:23.485Z,99105.31
2019-05-13T05:04:11.681Z,99095.42
2019-05-13T05:06:42.390Z,99102.72
2019-05-13T05:09:28.262Z,99104.88
2019-05-13T05:12:12.427Z,99098.46
2019-05-13T05:15:03.006Z,99041.32
2019-05-13T05:17:42.905Z,99110.05
2019-05-13T05:20:25.380Z,99108.36
2019-05-13T05:23:17.874Z,99110.06
2019-05-13T05:26:15.045Z,99116.52
2019-05-13T05:29:21.634Z,99122.97
2019-05-13T05:32:07.394Z,99124.66
2019-05-13T05:35:07.679Z,99122.09
2019-05-13T05:37:52.230Z,99122.97
2019-05-13T05:40:31.385Z,99117.81
2019-05-13T05:42:56.459Z,99119.95
2019-05-13T05:45:24.912Z,99121.23
2019-05-13T05:47:55.531Z,99126.39
2019-05-13T05:50:23.946Z,99123.37
2019-05-13T05:52:54.386Z,99123.38
2019-05-13T05:55:25.879Z,99113.00
2019-05-13T05:57:56.198Z,99121.16
2019-05-13T06:00:24.763Z,99114.67
2019-05-13T06:02:56.215Z,99115.88
2019-05-13T06:05:26.356Z,99110.70
2019-05-13T06:07:54.750Z,99121.50
2019-05-13T06:10:23.213Z,99121.98
2019-05-13T06:12:52.391Z,99118.08
2019-05-13T06:15:22.548Z,99114.20
2019-05-13T06:17:51.800Z,99121.05
2019-05-13T06:20:21.123Z,99115.97
2019-05-13T06:22:51.572Z,99116.80
2019-05-13T06:25:23.305Z,99118.45
2019-05-13T06:27:51.249Z,99116.30
2019-05-13T06:30:21.721Z,99124.45
2019-05-13T06:32:52.324Z,99121.77
2019-05-13T06:35:21.808Z,99117.95
2019-05-13T06:37:52.016Z,99118.33
2019-05-13T06:40:21.414Z,99119.91
2019-05-13T06:42:52.102Z,99117.17
2019-05-13T06:45:21.610Z,99117.47
2019-05-13T06:47:52.140Z,99118.75
2019-05-13T06:50:21.919Z,99116.03
2019-05-13T06:52:51.393Z,99127.07
2019-05-13T06:55:21.291Z,99114.79
2019-05-13T06:57:51.721Z,99120.73
2019-05-13T07:00:21.566Z,99122.23
2019-05-13T07:02:51.733Z,99123.48
2019-05-13T07:05:22.659Z,99127.30
2019-05-13T07:07:51.296Z,99124.98
2019-05-13T07:10:21.693Z,99123.59
2019-05-13T07:12:51.889Z,99126.12
2019-05-13T07:15:22.409Z,99114.22
2019-05-13T07:17:51.989Z,99117.41
2019-05-13T07:20:22.715Z,99115.87
2019-05-13T07:22:53.166Z,99114.93
2019-05-13T07:25:22.205Z,99116.19
2019-05-13T07:27:51.507Z,99118.02
2019-05-13T07:30:23.091Z,99114.27
2019-05-13T07:32:52.419Z,99118.30
2019-05-13T07:35:22.827Z,99118.55
2019-05-13T07:37:51.812Z,99121.57
2019-05-13T07:40:22.220Z,99115.95
2019-05-13T07:42:52.222Z,99109.08
2019-05-13T07:45:21.335Z,99115.96
2019-05-13T07:47:51.916Z,99111.34
2019-05-13T07:50:21.831Z,99108.53
2019-05-13T07:52:51.529Z,99111.64
2019-05-13T07:55:22.126Z,99121.36
2019-05-13T07:57:51.533Z,99112.20
2019-05-13T08:00:21.767Z,99109.00
2019-05-13T08:02:52.299Z,99103.95
2019-05-13T08:05:22.369Z,99109.23
2019-05-13T08:07:51.520Z,99108.95
2019-05-13T08:10:21.933Z,99112.75
2019-05-13T08:12:51.645Z,99114.93
2019-05-13T08:15:22.336Z,99108.48
2019-05-13T08:17:52.452Z,99107.05
2019-05-13T08:20:22.136Z,99106.61
2019-05-13T08:22:52.018Z,99107.03
2019-05-13T08:25:22.293Z,99104.72
2019-05-13T08:27:51.428Z,99103.30
2019-05-13T08:30:22.534Z,99094.73
2019-05-13T08:32:52.356Z,99102.05
2019-05-13T08:35:22.435Z,99095.69
2019-05-13T08:37:52.052Z,99105.56
2019-05-13T08:40:23.274Z,99101.13
2019-05-13T08:42:51.999Z,99098.07
2019-05-13T08:45:22.399Z,99101.31
2019-05-13T08:47:51.335Z,99093.53
2019-05-13T08:50:22.042Z,99092.58
2019-05-13T08:52:51.236Z,99094.36
2019-05-13T08:55:21.477Z,99099.48
2019-05-13T08:57:52.212Z,99085.69
2019-05-13T09:00:28.783Z,99090.80
2019-05-13T09:02:57.200Z,99096.08
2019-05-13T09:05:25.604Z,99086.22
2019-05-13T09:07:54.738Z,99087.83
2019-05-13T09:10:23.173Z,99085.41
2019-05-13T09:12:52.239Z,99087.33
2019-05-13T09:15:22.396Z,99085.93
2019-05-13T09:17:51.709Z,99085.39
2019-05-13T09:20:21.998Z,99095.22
2019-05-13T09:22:51.466Z,99087.08
2019-05-13T09:25:21.566Z,99083.98
2019-05-13T09:27:51.323Z,99078.70
2019-05-13T09:30:22.126Z,99085.70
2019-05-13T09:32:51.393Z,99076.55
2019-05-13T09:35:22.072Z,99085.91
2019-05-13T09:37:51.608Z,99082.65
2019-05-13T09:40:22.367Z,99073.62
2019-05-13T09:42:54.453Z,99077.11
2019-05-13T09:45:21.572Z,99088.34
2019-05-13T09:47:52.413Z,99082.14
2019-05-13T09:50:29.456Z,99083.48
2019-05-13T09:52:51.735Z,99075.23
2019-05-13T09:55:26.318Z,99080.45
2019-05-13T09:57:52.536Z,99074.56
2019-05-13T10:00:21.759Z,99065.02
2019-05-13T10:02:51.624Z,99069.20
2019-05-13T10:05:22.399Z,99062.62
2019-05-13T10:07:50.243Z,99066.73
2019-05-13T10:10:18.720Z,99074.64
2019-05-13T10:13:07.046Z,99066.25
2019-05-13T10:15:17.403Z,99061.42
2019-05-13T10:17:45.786Z,99032.84
2019-05-13T10:20:14.736Z,99070.06
2019-05-13T10:22:43.214Z,99066.82
2019-05-13T10:25:14.692Z,99062.11
2019-05-13T10:27:43.397Z,99054.56
2019-05-13T10:30:14.167Z,99048.77
2019-05-13T10:32:42.863Z,99039.94
2019-05-13T10:35:11.797Z,99049.69
2019-05-13T10:37:41.791Z,99031.21
2019-05-13T10:40:11.574Z,99042.86
2019-05-13T10:42:40.056Z,99036.53
2019-05-13T10:45:08.605Z,99033.95
2019-05-13T10:47:37.009Z,99044.42
2019-05-13T10:50:07.758Z,99038.96
2019-05-13T10:52:36.157Z,99036.27
2019-05-13T10:55:06.088Z,99036.78
2019-05-13T10:57:34.563Z,99041.11
2019-05-13T11:00:04.785Z,99029.77
2019-05-13T11:02:33.164Z,99040.20
2019-05-13T11:05:03.258Z,99035.88
2019-05-13T11:07:32.201Z,99033.89
2019-05-13T11:10:02.291Z,99029.50
2019-05-13T11:12:33.364Z,99036.80
2019-05-13T11:15:02.570Z,99029.80
2019-05-13T11:17:33.027Z,99023.56
2019-05-13T11:20:03.491Z,99017.07
2019-05-13T11:22:32.724Z,99024.37
2019-05-13T11:25:02.482Z,99015.60
2019-05-13T11:27:32.401Z,99026.05
2019-05-13T11:30:05.448Z,99006.27
2019-05-13T11:32:31.731Z,98995.67
2019-05-13T11:35:01.890Z,99006.84
2019-05-13T11:37:32.096Z,99004.09
2019-05-13T11:40:02.827Z,99008.26
2019-05-13T11:42:32.735Z,98995.33
2019-05-13T11:45:00.902Z,98998.66
2019-05-13T11:47:31.807Z,98999.91
2019-05-13T11:50:01.631Z,98994.68
2019-05-13T11:52:31.559Z,98993.02
2019-05-13T11:55:02.515Z,98999.39
2019-05-13T11:57:31.620Z,98992.57
2019-05-13T12:00:02.604Z,98986.56
2019-05-13T12:02:32.656Z,98992.11
2019-05-13T12:05:03.823Z,98982.35
2019-05-13T12:07:32.910Z,98980.16
2019-05-13T12:10:02.624Z,98971.05
2019-05-13T12:12:34.277Z,98979.98
2019-05-13T12:15:26.982Z,98978.52
2019-05-13T12:17:33.978Z,98968.88
2019-05-13T12:20:02.957Z,98964.69
2019-05-13T12:22:31.100Z,98963.81
2019-05-13T12:25:01.904Z,98971.70
2019-05-13T12:27:31.769Z,98963.56
2019-05-13T12:30:02.767Z,98971.47
2019-05-13T12:32:32.238Z,98982.13
2019-05-13T12:35:03.249Z,98980.95
2019-05-13T12:37:30.153Z,98967.06
2019-05-13T12:40:02.922Z,98957.73
2019-05-13T12:42:33.286Z,98956.67
2019-05-13T12:45:09.277Z,98955.67
2019-05-13T12:47:30.560Z,98946.59
2019-05-13T12:49:58.943Z,98963.91
2019-05-13T12:52:27.347Z,98951.01
2019-05-13T12:54:55.934Z,98946.05
2019-05-13T12:57:24.328Z,98945.55
2019-05-13T12:59:52.713Z,98941.73
2019-05-13T13:02:22.611Z,98936.61
2019-05-13T13:05:10.618Z,98938.07
2019-05-13T13:07:21.682Z,98939.20
2019-05-13T13:09:53.499Z,98939.08
2019-05-13T13:12:33.244Z,98950.45
2019-05-13T13:14:54.470Z,98942.77
2019-05-13T13:17:24.176Z,98932.91
2019-05-13T13:19:54.790Z,98933.95
2019-05-13T13:22:25.343Z,98931.59
2019-05-13T13:24:55.934Z,98937.90
2019-05-13T13:27:46.466Z,98905.36
2019-05-13T13:30:02.357Z,98936.52
2019-05-13T13:32:24.569Z,98933.20
2019-05-13T13:34:54.715Z,98931.61
2019-05-13T13:37:22.737Z,98922.45
2019-05-13T13:39:55.134Z,98920.16
2019-05-13T13:42:21.415Z,98926.45
2019-05-13T13:44:53.849Z,98932.77
2019-05-13T13:47:23.996Z,98920.84
2019-05-13T13:49:53.292Z,98918.84
2019-05-13T13:52:22.593Z,98920.47
2019-05-13T13:54:58.984Z,98925.51
2019-05-13T13:57:25.273Z,98925.68
2019-05-13T14:00:16.357Z,98922.19
2019-05-13T14:02:25.098Z,98903.63
2019-05-13T14:04:54.122Z,98910.94
2019-05-13T14:07:31.242Z,98918.28
2019-05-13T14:09:51.418Z,98917.02
2019-05-13T14:12:21.996Z,98901.24
2019-05-13T14:14:52.068Z,98921.94
2019-05-13T14:17:22.001Z,98911.98
2019-05-13T14:19:52.393Z,98918.28
2019-05-13T14:22:21.698Z,98906.59
2019-05-13T14:24:51.833Z,98907.89
2019-05-13T14:27:22.408Z,98898.59
2019-05-13T14:29:52.712Z,98900.86
2019-05-13T14:32:22.439Z,98895.23
2019-05-13T14:34:52.755Z,98890.34
2019-05-13T14:37:22.378Z,98892.62
2019-05-13T14:39:50.871Z,98888.26
2019-05-13T14:42:19.276Z,98892.39
2019-05-13T14:44:47.675Z,98884.38
2019-05-13T14:47:16.973Z,98890.28
2019-05-13T14:49:45.375Z,98875.95
2019-05-13T14:52:13.793Z,98887.58
2019-05-13T14:54:42.300Z,98886.52
2019-05-13T14:57:14.323Z,98875.48
2019-05-13T14:59:41.555Z,98875.77
2019-05-13T15:02:11.947Z,98870.75
2019-05-13T15:04:41.865Z,98874.34
2019-05-13T15:07:12.115Z,98879.03
2019-05-13T15:09:42.145Z,98876.21
2019-05-13T15:12:10.484Z,98871.51
2019-05-13T15:14:40.705Z,98866.48
2019-05-13T15:17:09.032Z,98870.56
2019-05-13T15:19:37.440Z,98836.50
2019-05-13T15:22:06.204Z,98870.71
2019-05-13T15:24:34.590Z,98861.97
2019-05-13T15:27:02.998Z,98870.54
2019-05-13T15:29:31.540Z,98864.87
2019-05-13T15:32:02.027Z,98864.40
2019-05-13T15:34:31.778Z,98867.34
2019-05-13T15:37:01.985Z,98859.95
2019-05-13T15:39:31.582Z,98860.21
2019-05-13T15:42:02.028Z,98860.13
2019-05-13T15:44:32.441Z,98866.55
2019-05-13T15:47:03.907Z,98865.75
2019-05-13T15:49:32.358Z,98865.42
2019-05-13T15:52:01.878Z,98861.92
2019-05-13T15:54:32.529Z,98859.95
2019-05-13T15:57:02.388Z,98862.23
2019-05-13T15:59:30.584Z,98862.94
2019-05-13T16:02:01.325Z,98856.70
2019-05-13T16:04:29.102Z,98858.00
2019-05-13T16:06:57.495Z,98854.84
2019-05-13T16:09:25.884Z,98857.86
2019-05-13T16:11:54.268Z,98859.26
2019-05-13T16:14:22.666Z,98850.06
2019-05-13T16:16:51.050Z,98851.88
2019-05-13T16:19:19.867Z,98856.80
2019-05-13T16:21:51.657Z,98848.73
2019-05-13T16:24:21.470Z,98843.81
2019-05-13T16:26:52.156Z,98852.27
2019-05-13T16:29:22.446Z,98838.62
2019-05-13T16:31:51.886Z,98835.92
2019-05-13T16:34:22.304Z,98844.83
2019-05-13T16:36:53.047Z,98848.55
2019-05-13T16:39:21.370Z,98840.72
2019-05-13T16:41:51.675Z,98845.33
2019-05-13T16:44:22.448Z,98854.27
2019-05-13T16:46:51.254Z,98855.77
2019-05-13T16:49:21.270Z,98856.89
2019-05-13T16:51:51.793Z,98850.33
2019-05-13T16:54:22.044Z,98859.28
2019-05-13T16:56:51.818Z,98857.30
2019-05-13T16:59:21.170Z,98853.98
2019-05-13T17:01:51.218Z,98865.75
2019-05-13T17:04:21.520Z,98860.39
2019-05-13T17:06:50.039Z,98864.88
2019-05-13T17:09:18.443Z,98867.70
2019-05-13T17:11:46.831Z,98865.94
2019-05-13T17:14:15.236Z,98868.24
2019-05-13T17:16:43.651Z,98883.03
2019-05-13T17:19:12.330Z,98881.01
2019-05-13T17:21:41.222Z,98880.87
2019-05-13T17:24:12.132Z,98875.13
2019-05-13T17:26:41.822Z,98872.53
2019-05-13T17:29:11.975Z,98884.31
2019-05-13T17:31:41.652Z,98883.05
2019-05-13T17:34:12.149Z,98878.39
2019-05-13T17:36:41.929Z,98874.08
2019-05-13T17:39:12.553Z,98875.89
2019-05-13T17:41:41.541Z,98893.10
2019-05-13T17:44:11.605Z,98891.58
2019-05-13T17:46:41.884Z,98895.98
2019-05-13T17:49:11.800Z,98894.37
2019-05-13T17:51:42.591Z,98897.51
2019-05-13T17:54:11.834Z,98893.30
2019-05-13T17:56:40.425Z,98894.38
2019-05-13T17:59:11.176Z,98911.77
2019-05-13T18:01:41.098Z,98906.75
2019-05-13T18:04:11.518Z,98906.58
2019-05-13T18:06:41.539Z,98909.36
2019-05-13T18:09:11.737Z,98913.74
2019-05-13T18:11:41.562Z,98913.88
2019-05-13T18:14:11.421Z,98913.59
2019-05-13T18:16:43.631Z,98921.91
2019-05-13T18:19:12.238Z,98892.97
2019-05-13T18:21:42.375Z,98917.70
2019-05-13T18:24:11.911Z,98917.02
2019-05-13T18:26:41.967Z,98888.23
2019-05-13T18:29:12.188Z,98918.25
2019-05-13T18:31:42.032Z,98920.06
2019-05-13T18:34:12.214Z,98888.63
2019-05-13T18:36:42.671Z,98929.02
2019-05-13T18:39:12.400Z,98933.84
2019-05-13T18:41:41.373Z,98939.19
2019-05-13T18:44:12.248Z,98950.92
2019-05-13T18:46:41.705Z,98942.83
2019-05-13T18:49:11.986Z,98940.29
2019-05-13T18:51:42.235Z,98946.10
2019-05-13T18:54:16.584Z,98942.30
2019-05-13T18:56:46.592Z,98945.78
2019-05-13T18:59:15.146Z,98962.30
2019-05-13T19:01:43.546Z,98950.31
2019-05-13T19:04:11.979Z,98949.95
2019-05-13T19:06:42.404Z,98958.67
2019-05-13T19:09:11.219Z,98949.31
2019-05-13T19:11:42.416Z,98957.53
2019-05-13T19:14:12.274Z,98959.73
2019-05-13T19:16:42.227Z,98965.02
2019-05-13T19:19:13.275Z,98972.84
2019-05-13T19:21:41.615Z,98971.65
2019-05-13T19:24:11.114Z,98972.17
2019-05-13T19:26:41.635Z,98977.40
2019-05-13T19:29:11.525Z,98975.38
2019-05-13T19:31:41.797Z,98978.88
2019-05-13T19:34:12.511Z,98968.96
2019-05-13T19:36:40.431Z,98971.67
2019-05-13T19:39:11.207Z,98979.48
2019-05-13T19:41:38.960Z,98979.61
2019-05-13T19:44:07.360Z,98978.81
2019-05-13T19:46:35.750Z,98982.28
2019-05-13T19:49:04.156Z,98981.55
2019-05-13T19:51:32.556Z,98986.75
2019-05-13T19:54:01.348Z,98985.98
2019-05-13T19:56:31.783Z,98986.84
2019-05-13T19:59:01.559Z,98979.16
2019-05-13T20:01:32.187Z,98991.73
2019-05-13T20:04:02.393Z,98977.59
2019-05-13T20:06:35.753Z,98986.70
2019-05-13T20:09:05.727Z,98981.17
2019-05-13T20:11:34.133Z,98983.36
2019-05-13T20:14:02.604Z,98985.08
2019-05-13T20:16:32.099Z,98983.85
2019-05-13T20:19:01.285Z,98977.84
2019-05-13T20:21:31.957Z,98980.91
2019-05-13T20:24:00.014Z,98982.67
2019-05-13T20:26:28.411Z,98982.24
2019-05-13T20:28:56.797Z,98985.76
2019-05-13T20:31:25.189Z,98985.36
2019-05-13T20:33:53.576Z,98986.75
2019-05-13T20:36:22.367Z,98988.53
2019-05-13T20:38:51.618Z,98990.23
2019-05-13T20:41:22.209Z,98992.91
2019-05-13T20:43:52.082Z,98994.20
2019-05-13T20:46:22.951Z,99002.91
2019-05-13T20:48:51.970Z,98997.33
2019-05-13T20:51:21.965Z,98998.62
2019-05-13T20:53:51.811Z,98999.97
2019-05-13T20:56:21.475Z,99003.06
2019-05-13T20:58:51.550Z,98998.80
2019-05-13T21:01:20.034Z,98999.67
2019-05-13T21:03:48.410Z,98995.36
2019-05-13T21:06:16.810Z,98999.25
2019-05-13T21:08:45.203Z,98997.61
2019-05-13T21:11:13.589Z,98991.19
2019-05-13T21:13:41.966Z,98983.03
2019-05-13T21:16:11.425Z,98981.36
2019-05-13T21:18:42.129Z,98985.70
2019-05-13T21:21:11.708Z,98978.84
2019-05-13T21:23:41.707Z,98977.98
2019-05-13T21:26:13.159Z,98976.26
2019-05-13T21:28:41.958Z,98974.52
2019-05-13T21:31:11.358Z,98971.96
2019-05-13T21:33:39.841Z,98977.15
2019-05-13T21:36:08.267Z,98968.17
2019-05-13T21:38:36.702Z,98964.31
2019-05-13T21:41:05.101Z,98959.59
2019-05-13T21:43:33.496Z,98964.37
2019-05-13T21:46:02.274Z,98931.39
2019-05-13T21:48:32.493Z,98962.69
2019-05-13T21:51:01.099Z,98957.55
2019-05-13T21:53:32.334Z,98953.28
2019-05-13T21:56:02.112Z,98958.47
2019-05-13T21:58:31.247Z,98957.59
2019-05-13T22:01:01.563Z,98962.39
2019-05-13T22:03:33.222Z,98955.11
2019-05-13T22:06:01.931Z,98957.27
2019-05-13T22:08:32.148Z,98950.40
2019-05-13T22:11:01.762Z,98955.17
2019-05-13T22:13:31.618Z,98938.00
2019-05-13T22:16:01.708Z,98940.58
2019-05-13T22:18:31.407Z,98943.61
2019-05-13T22:21:01.636Z,98933.30
2019-05-13T22:23:32.111Z,98932.47
2019-05-13T22:26:01.571Z,98936.33
2019-05-13T22:28:31.249Z,98935.50
2019-05-13T22:31:01.361Z,98930.36
2019-05-13T22:33:32.166Z,98931.22
2019-05-13T22:36:01.623Z,98933.80
2019-05-13T22:38:32.369Z,98928.25
2019-05-13T22:41:01.238Z,98936.84
2019-05-13T22:43:32.078Z,98932.13
2019-05-13T22:45:59.881Z,98932.53
2019-05-13T22:48:28.300Z,98932.13
2019-05-13T22:50:56.679Z,98929.11
2019-05-13T22:53:25.096Z,98927.37
2019-05-13T22:55:53.504Z,98925.69
2019-05-13T22:58:22.490Z,98925.71
2019-05-13T23:00:51.751Z,98924.00
2019-05-13T23:03:20.212Z,98923.17
2019-05-13T23:05:48.593Z,98920.16
2019-05-13T23:08:16.997Z,98920.16
2019-05-13T23:10:45.411Z,98915.02
2019-05-13T23:13:13.831Z,98915.45
2019-05-13T23:15:42.243Z,98915.91
2019-05-13T23:18:11.780Z,98919.34
2019-05-13T23:20:41.009Z,98914.64
2019-05-13T23:23:11.615Z,98920.23
2019-05-13T23:25:40.923Z,98912.95
2019-05-13T23:28:11.249Z,98903.95
2019-05-13T23:30:41.609Z,98908.22
2019-05-13T23:33:11.586Z,98900.53
2019-05-13T23:35:41.772Z,98883.37
2019-05-13T23:38:10.400Z,98894.95
2019-05-13T23:40:38.815Z,98894.95
2019-05-13T23:43:07.207Z,98885.53
2019-05-13T23:45:35.633Z,98886.83
2019-05-13T23:48:04.013Z,98890.25
2019-05-13T23:50:32.409Z,98885.53
2019-05-13T23:53:00.801Z,98890.68
2019-05-13T23:55:29.206Z,98894.54
2019-05-13T23:57:57.623Z,98894.98
